Time;durP1;ratioP1;P1;durP2;ratioP2;P2;SDS_P1;SDS_P2;PMS_P1;PMS_P2;Temp;Humidity;BMP_temperature;BMP_pressure;BME280_temperature;BME280_humidity;BME280_pressure;Samples;Min_cycle;Max_cycle;Signal;HPM_P1;HPM_P2
2023/08/03 00:02:03;;;;;;;;;;;16.00;99.90;;;;;;5066937;28;19908;-90
2023/08/03 00:04:30;;;;;;;;;;;16.00;99.90;;;;;;5067660;28;20363;-89
2023/08/03 00:06:59;;;;;;;;;;;15.90;99.90;;;;;;5059288;28;20344;-89
2023/08/03 00:09:29;;;;;;;;;;;16.00;99.90;;;;;;5057101;28;19912;-89
2023/08/03 00:11:55;;;;;;;;;;;16.00;99.90;;;;;;5065357;28;19913;-89
2023/08/03 00:14:20;;;;;;;;;;;16.00;99.90;;;;;;5063981;28;20529;-89
2023/08/03 00:16:46;;;;;;;;;;;16.00;99.90;;;;;;5051551;28;20436;-89
2023/08/03 00:19:13;;;;;;;;;;;16.00;99.90;;;;;;5067496;28;19932;-89
2023/08/03 00:21:41;;;;;;;;;;;16.00;99.90;;;;;;5059494;28;19921;-89
2023/08/03 00:24:06;;;;;;;;;;;16.00;99.90;;;;;;5066786;28;19916;-89
2023/08/03 00:26:35;;;;;;;;;;;16.00;99.90;;;;;;5066322;28;22573;-88
2023/08/03 00:29:09;;;;;;;;;;;16.00;99.90;;;;;;5063407;28;19908;-86
2023/08/03 00:31:38;;;;;;;;;;;16.00;99.90;;;;;;5061930;28;19916;-88
2023/08/03 00:34:05;;;;;;;;;;;16.00;99.90;;;;;;5065630;28;19905;-90
2023/08/03 00:36:31;;;;;;;;;;;16.10;99.90;;;;;;5066084;28;19928;-89
2023/08/03 00:38:56;;;;;;;;;;;16.10;99.90;;;;;;5065835;28;19917;-89
2023/08/03 00:41:24;;;;;;;;;;;16.10;99.90;;;;;;5066170;28;19909;-89
2023/08/03 00:43:53;;;;;;;;;;;16.10;99.90;;;;;;5057351;28;19951;-88
2023/08/03 00:46:29;;;;;;;;;;;16.10;99.90;;;;;;5064146;28;20029;-88
2023/08/03 00:48:55;;;;;;;;;;;16.10;99.90;;;;;;5066104;28;19995;-89
2023/08/03 00:51:22;;;;;;;;;;;16.10;99.90;;;;;;5064545;28;19920;-88
2023/08/03 00:53:48;;;;;;;;;;;16.00;99.90;;;;;;5063473;28;20011;-86
2023/08/03 00:56:14;;;;;;;;;;;16.10;99.90;;;;;;5065027;28;20372;-87
2023/08/03 00:58:39;;;;;;;;;;;16.10;99.90;;;;;;5067421;28;19994;-89
2023/08/03 01:01:05;;;;;;;;;;;16.10;99.90;;;;;;5066934;28;19917;-89
2023/08/03 01:03:32;;;;;;;;;;;16.10;99.90;;;;;;5067075;28;19913;-88
2023/08/03 01:05:57;;;;;;;;;;;16.10;99.90;;;;;;5061387;28;19908;-88
2023/08/03 01:08:23;;;;;;;;;;;16.20;99.90;;;;;;5068216;28;19912;-89
2023/08/03 01:10:49;;;;;;;;;;;16.20;99.90;;;;;;5072268;28;20340;-89
2023/08/03 01:13:14;;;;;;;;;;;16.20;99.90;;;;;;5070113;28;20328;-91
2023/08/03 01:15:41;;;;;;;;;;;16.20;99.90;;;;;;5071194;28;20268;-91
2023/08/03 01:18:10;;;;;;;;;;;16.20;99.90;;;;;;5071132;28;20245;-91
2023/08/03 01:20:48;;;;;;;;;;;16.20;99.90;;;;;;5071842;28;19922;-89
2023/08/03 01:23:14;;;;;;;;;;;16.30;99.90;;;;;;5071251;28;19950;-90
2023/08/03 01:25:42;;;;;;;;;;;16.30;99.90;;;;;;5087956;28;20292;-91
2023/08/03 01:28:09;;;;;;;;;;;16.30;99.90;;;;;;5071477;28;19908;-90
2023/08/03 01:30:35;;;;;;;;;;;16.20;99.90;;;;;;5070809;28;19909;-90
2023/08/03 01:33:03;;;;;;;;;;;16.20;99.90;;;;;;5048010;28;19920;-92
2023/08/03 01:35:39;;;;;;;;;;;16.20;99.90;;;;;;5056435;28;19912;-91
2023/08/03 01:38:08;;;;;;;;;;;16.10;99.90;;;;;;5056871;28;19917;-91
2023/08/03 01:40:34;;;;;;;;;;;16.20;99.90;;;;;;5073617;28;19954;-90
2023/08/03 01:43:02;;;;;;;;;;;16.20;99.90;;;;;;5077434;28;19916;-91
2023/08/03 01:45:30;;;;;;;;;;;16.20;99.90;;;;;;5083571;28;19970;-94
2023/08/03 01:48:00;;;;;;;;;;;16.20;99.90;;;;;;5074056;28;19908;-90
2023/08/03 01:50:25;;;;;;;;;;;16.30;99.90;;;;;;5068157;28;19974;-91
2023/08/03 01:52:51;;;;;;;;;;;16.30;99.90;;;;;;5066196;28;19952;-94
2023/08/03 01:55:17;;;;;;;;;;;16.40;99.90;;;;;;5069193;28;19912;-93
2023/08/03 01:57:42;;;;;;;;;;;16.40;99.90;;;;;;5063425;28;19921;-94
2023/08/03 02:00:08;;;;;;;;;;;16.40;99.90;;;;;;5072879;28;20027;-93
2023/08/03 02:02:34;;;;;;;;;;;16.40;99.90;;;;;;5070399;28;20360;-92
2023/08/03 02:05:00;;;;;;;;;;;16.40;99.90;;;;;;5070674;28;19916;-93
2023/08/03 02:07:59;;;;;;;;;;;16.50;99.90;;;;;;5067539;28;19908;-92
2023/08/03 02:10:24;;;;;;;;;;;16.50;99.90;;;;;;5022691;28;19921;-91
2023/08/03 02:12:50;;;;;;;;;;;16.50;99.90;;;;;;5071852;28;19923;-92
2023/08/03 02:15:17;;;;;;;;;;;16.60;99.90;;;;;;5068157;28;19905;-93
2023/08/03 02:17:43;;;;;;;;;;;16.60;99.90;;;;;;5060073;28;19912;-92
2023/08/03 02:20:09;;;;;;;;;;;16.60;99.90;;;;;;5069503;28;19970;-92
2023/08/03 02:22:35;;;;;;;;;;;16.60;99.90;;;;;;5071250;28;19930;-93
2023/08/03 02:25:01;;;;;;;;;;;16.60;99.90;;;;;;5070862;28;19983;-92
2023/08/03 02:27:26;;;;;;;;;;;16.60;99.90;;;;;;5068521;28;19920;-93
2023/08/03 02:29:52;;;;;;;;;;;16.50;99.90;;;;;;5066721;28;19908;-93
2023/08/03 02:32:22;;;;;;;;;;;16.60;99.90;;;;;;5062037;28;19935;-92
2023/08/03 02:34:54;;;;;;;;;;;16.60;99.90;;;;;;5058102;28;20617;-95
2023/08/03 02:37:20;;;;;;;;;;;16.50;99.90;;;;;;5046721;28;19919;-92
2023/08/03 02:39:45;;;;;;;;;;;16.60;99.90;;;;;;5067634;28;19912;-92
2023/08/03 02:42:12;;;;;;;;;;;16.50;99.90;;;;;;5069534;28;19989;-92
2023/08/03 02:44:37;;;;;;;;;;;16.60;99.90;;;;;;5059970;28;19966;-94
2023/08/03 02:47:16;;;;;;;;;;;16.60;99.90;;;;;;5070451;28;19916;-94
2023/08/03 02:49:42;;;;;;;;;;;16.50;99.90;;;;;;5071015;28;20258;-93
2023/08/03 02:52:09;;;;;;;;;;;16.60;99.90;;;;;;5068363;28;19917;-91
2023/08/03 02:54:35;;;;;;;;;;;16.60;99.90;;;;;;5073875;28;20019;-91
2023/08/03 02:57:00;;;;;;;;;;;16.50;99.90;;;;;;5078690;28;19927;-91
2023/08/03 02:59:26;;;;;;;;;;;16.50;99.90;;;;;;5079178;28;19966;-91
2023/08/03 03:01:51;;;;;;;;;;;16.50;99.90;;;;;;5075870;28;19923;-89
2023/08/03 03:04:17;;;;;;;;;;;16.50;99.90;;;;;;5069345;28;19908;-91
2023/08/03 03:06:42;;;;;;;;;;;16.50;99.90;;;;;;5067780;28;19908;-91
2023/08/03 03:09:08;;;;;;;;;;;16.50;99.90;;;;;;5070584;28;19923;-90
2023/08/03 03:11:33;;;;;;;;;;;16.50;99.90;;;;;;5070092;28;19908;-91
2023/08/03 03:13:59;;;;;;;;;;;16.50;99.90;;;;;;5054217;28;19912;-92
2023/08/03 03:16:25;;;;;;;;;;;16.50;99.90;;;;;;5069729;28;19920;-92
2023/08/03 03:18:51;;;;;;;;;;;16.50;99.90;;;;;;5066291;28;19919;-92
2023/08/03 03:21:16;;;;;;;;;;;16.50;99.90;;;;;;5072534;28;19904;-91
2023/08/03 03:23:42;;;;;;;;;;;16.50;99.90;;;;;;5070710;28;19915;-91
2023/08/03 03:26:08;;;;;;;;;;;16.50;99.90;;;;;;5065556;28;19956;-90
2023/08/03 03:28:33;;;;;;;;;;;16.50;99.90;;;;;;5064572;28;19935;-90
2023/08/03 03:30:59;;;;;;;;;;;16.40;99.90;;;;;;5071361;28;19909;-91
2023/08/03 03:33:24;;;;;;;;;;;16.40;99.90;;;;;;5073214;28;20427;-92
2023/08/03 03:35:50;;;;;;;;;;;16.40;99.90;;;;;;5047445;28;19916;-91
2023/08/03 03:38:15;;;;;;;;;;;16.40;99.90;;;;;;5071081;28;19919;-91
2023/08/03 03:40:41;;;;;;;;;;;16.40;99.90;;;;;;5070857;28;20348;-90
2023/08/03 03:43:09;;;;;;;;;;;16.40;99.90;;;;;;5075394;28;20007;-92
2023/08/03 03:45:36;;;;;;;;;;;16.30;99.90;;;;;;5069449;28;19962;-90
2023/08/03 03:48:11;;;;;;;;;;;16.40;99.90;;;;;;5074923;28;19920;-92
2023/08/03 03:50:39;;;;;;;;;;;16.30;99.90;;;;;;5068723;28;19908;-91
2023/08/03 03:53:05;;;;;;;;;;;16.30;99.90;;;;;;5080165;28;19936;-91
2023/08/03 03:55:32;;;;;;;;;;;16.40;99.90;;;;;;5074286;28;19951;-92
2023/08/03 03:57:59;;;;;;;;;;;16.30;99.90;;;;;;5087306;28;19939;-90
2023/08/03 04:00:25;;;;;;;;;;;16.30;99.90;;;;;;5079007;28;19947;-91
2023/08/03 04:02:52;;;;;;;;;;;16.30;99.90;;;;;;5075466;28;19970;-91
2023/08/03 04:05:17;;;;;;;;;;;16.30;99.90;;;;;;5072461;28;19912;-92
2023/08/03 04:07:52;;;;;;;;;;;16.30;99.90;;;;;;5070676;28;20287;-92
2023/08/03 04:10:18;;;;;;;;;;;16.30;99.90;;;;;;5074745;28;19935;-92
2023/08/03 04:12:43;;;;;;;;;;;16.30;99.90;;;;;;5072274;28;20360;-91
2023/08/03 04:15:12;;;;;;;;;;;16.30;99.90;;;;;;5073212;28;19959;-94
2023/08/03 04:17:38;;;;;;;;;;;16.30;99.90;;;;;;5069971;28;19916;-92
2023/08/03 04:20:12;;;;;;;;;;;16.30;99.90;;;;;;5072323;28;19912;-92
2023/08/03 04:22:38;;;;;;;;;;;16.30;99.90;;;;;;5072536;28;19923;-93
2023/08/03 04:25:04;;;;;;;;;;;16.30;99.90;;;;;;5070609;28;19909;-92
2023/08/03 04:27:29;;;;;;;;;;;16.30;99.90;;;;;;5069885;28;20238;-94
2023/08/03 04:30:00;;;;;;;;;;;16.30;99.90;;;;;;5076103;28;19908;-93
2023/08/03 04:32:26;;;;;;;;;;;16.40;99.90;;;;;;5081921;28;19990;-93
2023/08/03 04:34:53;;;;;;;;;;;16.40;99.90;;;;;;5072420;28;19909;-94
2023/08/03 04:37:21;;;;;;;;;;;16.40;99.90;;;;;;5062230;28;19916;-94
2023/08/03 04:39:47;;;;;;;;;;;16.40;99.90;;;;;;5068762;28;19916;-92
2023/08/03 04:42:14;;;;;;;;;;;16.40;99.90;;;;;;5063959;28;19912;-94
2023/08/03 04:44:40;;;;;;;;;;;16.40;99.90;;;;;;5070438;28;19921;-94
2023/08/03 04:47:06;;;;;;;;;;;16.40;99.90;;;;;;5072483;28;19946;-92
2023/08/03 04:49:32;;;;;;;;;;;16.40;99.90;;;;;;5070034;28;19912;-96
2023/08/03 04:52:00;;;;;;;;;;;16.30;99.90;;;;;;5071438;28;20337;-95
2023/08/03 04:54:27;;;;;;;;;;;16.30;99.90;;;;;;5068910;28;19917;-95
2023/08/03 04:56:55;;;;;;;;;;;16.30;99.90;;;;;;5072229;28;19959;-94
2023/08/03 04:59:26;;;;;;;;;;;16.30;99.90;;;;;;5068673;28;19912;-95
2023/08/03 05:02:00;;;;;;;;;;;16.30;99.90;;;;;;5064559;28;19987;-95
2023/08/03 05:04:27;;;;;;;;;;;16.40;99.90;;;;;;5068044;28;19916;-95
2023/08/03 05:06:52;;;;;;;;;;;16.30;99.90;;;;;;5069423;28;19909;-96
2023/08/03 05:09:18;;;;;;;;;;;16.30;99.90;;;;;;5067296;28;19919;-95
2023/08/03 05:11:49;;;;;;;;;;;16.40;99.90;;;;;;5067724;28;19916;-95
2023/08/03 05:14:15;;;;;;;;;;;16.30;99.90;;;;;;5086201;28;20054;-94
2023/08/03 05:16:40;;;;;;;;;;;16.40;99.90;;;;;;5067960;28;20003;-94
2023/08/03 05:19:06;;;;;;;;;;;16.40;99.90;;;;;;5071500;28;20276;-91
2023/08/03 05:21:32;;;;;;;;;;;16.40;99.90;;;;;;5071116;28;19953;-92
2023/08/03 05:24:02;;;;;;;;;;;16.40;99.90;;;;;;5069906;28;19923;-92
2023/08/03 05:26:33;;;;;;;;;;;16.40;99.90;;;;;;5066027;28;19912;-94
2023/08/03 05:29:18;;;;;;;;;;;16.40;99.90;;;;;;5069061;28;19920;-92
2023/08/03 05:31:49;;;;;;;;;;;16.40;99.90;;;;;;5060064;28;19909;-91
2023/08/03 05:34:15;;;;;;;;;;;16.40;99.90;;;;;;5060492;28;19915;-92
2023/08/03 05:36:50;;;;;;;;;;;16.30;99.90;;;;;;5069021;28;19916;-94
2023/08/03 05:39:17;;;;;;;;;;;16.30;99.90;;;;;;5060960;28;19997;-92
2023/08/03 05:41:55;;;;;;;;;;;16.30;99.90;;;;;;5048633;28;20415;-91
2023/08/03 05:44:24;;;;;;;;;;;16.30;99.90;;;;;;5051628;28;19924;-91
2023/08/03 05:46:58;;;;;;;;;;;16.40;99.90;;;;;;5070761;28;20274;-93
2023/08/03 05:49:31;;;;;;;;;;;16.40;99.90;;;;;;5068029;28;20237;-92
2023/08/03 05:52:00;;;;;;;;;;;16.30;99.90;;;;;;5062117;28;20031;-92
2023/08/03 05:54:33;;;;;;;;;;;16.30;99.90;;;;;;5072116;28;19921;-92
2023/08/03 05:57:01;;;;;;;;;;;16.30;99.90;;;;;;5067652;28;19988;-92
2023/08/03 05:59:29;;;;;;;;;;;16.30;99.90;;;;;;5085339;28;19958;-92
2023/08/03 06:02:01;;;;;;;;;;;16.30;99.90;;;;;;5070065;28;19948;-93
2023/08/03 06:04:31;;;;;;;;;;;16.30;99.90;;;;;;5082634;28;19948;-93
2023/08/03 06:07:04;;;;;;;;;;;16.30;99.90;;;;;;5077501;28;19909;-91
2023/08/03 06:09:36;;;;;;;;;;;16.30;99.90;;;;;;5075973;28;19942;-92
2023/08/03 06:12:08;;;;;;;;;;;16.40;99.90;;;;;;5078416;28;19913;-91
2023/08/03 06:15:02;;;;;;;;;;;16.30;99.90;;;;;;5070539;28;19908;-92
2023/08/03 06:17:31;;;;;;;;;;;16.30;99.90;;;;;;5070698;28;19916;-90
2023/08/03 06:20:02;;;;;;;;;;;16.30;99.90;;;;;;5069439;28;19915;-91
2023/08/03 06:22:42;;;;;;;;;;;16.30;99.90;;;;;;5064077;28;19909;-94
2023/08/03 06:25:10;;;;;;;;;;;16.30;99.90;;;;;;5083988;28;19958;-92
2023/08/03 06:27:43;;;;;;;;;;;16.30;99.90;;;;;;5054753;28;19912;-91
2023/08/03 06:30:13;;;;;;;;;;;16.30;99.90;;;;;;5065671;28;19934;-92
2023/08/03 06:32:59;;;;;;;;;;;16.30;99.90;;;;;;5066742;28;19913;-92
2023/08/03 06:35:37;;;;;;;;;;;16.30;99.90;;;;;;5058897;28;19913;-92
2023/08/03 06:38:05;;;;;;;;;;;16.30;99.90;;;;;;5074108;28;19916;-92
2023/08/03 06:40:33;;;;;;;;;;;16.30;99.90;;;;;;5068422;28;20089;-92
2023/08/03 06:43:11;;;;;;;;;;;16.30;99.90;;;;;;5072634;28;20003;-93
2023/08/03 06:45:56;;;;;;;;;;;16.30;99.90;;;;;;5069396;28;19916;-92
2023/08/03 06:48:38;;;;;;;;;;;16.30;99.90;;;;;;5064198;28;19927;-93
2023/08/03 06:51:13;;;;;;;;;;;16.30;99.90;;;;;;5060537;28;20506;-93
2023/08/03 06:53:47;;;;;;;;;;;16.30;99.90;;;;;;5069741;28;19912;-92
2023/08/03 06:56:23;;;;;;;;;;;16.30;99.90;;;;;;5070527;28;19917;-93
2023/08/03 06:59:03;;;;;;;;;;;16.30;99.90;;;;;;5069749;28;19913;-92
2023/08/03 07:01:28;;;;;;;;;;;16.30;99.90;;;;;;5068104;28;20341;-94
2023/08/03 07:03:55;;;;;;;;;;;16.40;99.90;;;;;;5067885;28;19915;-93
2023/08/03 07:06:31;;;;;;;;;;;16.40;99.90;;;;;;5073008;28;19917;-95
2023/08/03 07:08:57;;;;;;;;;;;16.40;99.90;;;;;;5085155;28;19916;-94
2023/08/03 07:11:22;;;;;;;;;;;16.50;99.90;;;;;;5052618;28;20357;-91
2023/08/03 07:13:57;;;;;;;;;;;16.50;99.90;;;;;;5069837;28;19923;-94
2023/08/03 07:16:35;;;;;;;;;;;;;;;;;;;;;
2023/08/03 07:19:21;;;;;;;;;;;16.40;99.90;;;;;;5064549;28;19909;-95
2023/08/03 07:21:49;;;;;;;;;;;16.40;99.90;;;;;;5062759;28;19923;-94
2023/08/03 07:24:27;;;;;;;;;;;;;;;;;;;;;
2023/08/03 07:26:56;;;;;;;;;;;16.40;99.90;;;;;;5066877;28;19912;-95
2023/08/03 07:29:21;;;;;;;;;;;16.40;99.90;;;;;;5067753;28;20356;-92
2023/08/03 07:31:48;;;;;;;;;;;16.40;99.90;;;;;;5073035;28;19927;-94
2023/08/03 07:34:14;;;;;;;;;;;16.30;99.90;;;;;;5053301;28;19913;-94
2023/08/03 07:37:13;;;;;;;;;;;16.40;99.90;;;;;;5072274;28;19924;-93
2023/08/03 07:40:02;;;;;;;;;;;16.40;99.90;;;;;;5059742;28;19920;-92
2023/08/03 07:42:32;;;;;;;;;;;16.50;99.90;;;;;;5062563;28;19916;-94
2023/08/03 07:45:01;;;;;;;;;;;16.50;99.90;;;;;;5063792;28;19999;-92
2023/08/03 07:47:40;;;;;;;;;;;16.50;99.90;;;;;;5060283;28;19925;-93
2023/08/03 07:50:08;;;;;;;;;;;16.50;99.90;;;;;;5060504;28;19954;-92
2023/08/03 07:52:44;;;;;;;;;;;16.60;99.90;;;;;;5053664;28;19932;-94
2023/08/03 07:55:16;;;;;;;;;;;16.70;99.90;;;;;;5061879;28;20036;-92
2023/08/03 07:57:56;;;;;;;;;;;16.70;99.90;;;;;;5059930;28;19925;-90
2023/08/03 08:00:22;;;;;;;;;;;16.60;99.90;;;;;;5064214;28;19920;-92
2023/08/03 08:02:53;;;;;;;;;;;16.60;99.90;;;;;;5062498;28;19916;-91
2023/08/03 08:05:51;;;;;;;;;;;16.60;99.90;;;;;;5062677;28;19967;-92
2023/08/03 08:08:17;;;;;;;;;;;16.60;99.90;;;;;;5065323;28;19909;-90
2023/08/03 08:10:57;;;;;;;;;;;16.70;99.90;;;;;;5069849;28;19912;-91
2023/08/03 08:13:26;;;;;;;;;;;16.60;99.90;;;;;;5074816;28;19908;-92
2023/08/03 08:16:17;;;;;;;;;;;16.60;99.90;;;;;;5072375;28;19929;-91
2023/08/03 08:19:26;;;;;;;;;;;16.60;99.90;;;;;;5073328;28;19909;-91
2023/08/03 08:22:13;;;;;;;;;;;16.60;99.90;;;;;;5035715;28;19956;-90
2023/08/03 08:24:48;;;;;;;;;;;16.70;99.90;;;;;;5024530;28;20380;-91
2023/08/03 08:27:17;;;;;;;;;;;16.70;99.90;;;;;;5072530;28;19908;-92
2023/08/03 08:29:47;;;;;;;;;;;16.70;99.90;;;;;;5073942;28;20367;-92
2023/08/03 08:32:18;;;;;;;;;;;16.70;99.90;;;;;;5067704;28;19908;-92
2023/08/03 08:34:56;;;;;;;;;;;16.80;99.90;;;;;;5069234;28;19920;-92
2023/08/03 08:37:41;;;;;;;;;;;16.70;99.90;;;;;;5069051;28;19920;-92
2023/08/03 08:40:18;;;;;;;;;;;16.70;99.90;;;;;;5066958;28;19939;-93
2023/08/03 08:42:50;;;;;;;;;;;16.80;99.90;;;;;;5049957;28;19958;-92
2023/08/03 08:45:19;;;;;;;;;;;16.90;99.90;;;;;;5069543;28;19935;-92
2023/08/03 08:48:09;;;;;;;;;;;16.90;99.90;;;;;;5063399;28;19917;-92
2023/08/03 08:50:45;;;;;;;;;;;17.00;99.90;;;;;;5071958;28;20307;-93
2023/08/03 08:53:13;;;;;;;;;;;17.00;99.90;;;;;;5071876;28;20003;-93
2023/08/03 08:55:44;;;;;;;;;;;17.20;99.90;;;;;;5050226;28;19969;-92
2023/08/03 08:58:19;;;;;;;;;;;17.30;99.90;;;;;;5067828;28;19917;-94
2023/08/03 09:00:50;;;;;;;;;;;17.50;99.90;;;;;;5068248;28;19909;-92
2023/08/03 09:03:16;;;;;;;;;;;17.80;99.90;;;;;;5080210;28;19924;-92
2023/08/03 09:05:57;;;;;;;;;;;18.10;99.90;;;;;;5068010;28;19920;-92
2023/08/03 09:08:22;;;;;;;;;;;18.20;99.90;;;;;;5069961;28;20028;-90
2023/08/03 09:10:53;;;;;;;;;;;18.20;99.90;;;;;;5073211;28;19975;-90
2023/08/03 09:13:35;;;;;;;;;;;18.00;99.90;;;;;;5065506;28;19925;-92
2023/08/03 09:16:01;;;;;;;;;;;17.90;99.90;;;;;;5071014;28;19908;-92
2023/08/03 09:18:30;;;;;;;;;;;17.80;99.90;;;;;;5054354;28;19909;-91
2023/08/03 09:21:20;;;;;;;;;;;17.90;99.90;;;;;;5070051;28;19977;-90
2023/08/03 09:23:46;;;;;;;;;;;18.10;99.90;;;;;;5066533;28;19948;-91
2023/08/03 09:26:20;;;;;;;;;;;18.40;99.90;;;;;;5067477;28;19908;-93
2023/08/03 09:28:46;;;;;;;;;;;18.80;99.90;;;;;;5070862;28;19912;-93
2023/08/03 09:31:19;;;;;;;;;;;19.00;99.90;;;;;;5069468;28;19909;-92
2023/08/03 09:33:59;;;;;;;;;;;19.20;99.90;;;;;;5048926;28;19920;-91
2023/08/03 09:36:26;;;;;;;;;;;19.30;99.90;;;;;;5082489;28;19925;-91
2023/08/03 09:38:55;;;;;;;;;;;19.50;99.90;;;;;;5083659;28;20011;-92
2023/08/03 09:41:35;;;;;;;;;;;19.70;99.90;;;;;;5075434;28;19916;-92
2023/08/03 09:44:00;;;;;;;;;;;19.70;99.90;;;;;;5075358;28;19920;-90
2023/08/03 09:46:27;;;;;;;;;;;19.50;99.90;;;;;;5081222;28;19912;-92
2023/08/03 09:49:00;;;;;;;;;;;19.40;99.90;;;;;;5077250;28;19929;-90
2023/08/03 09:51:29;;;;;;;;;;;19.40;99.90;;;;;;5079204;28;19943;-90
2023/08/03 09:53:58;;;;;;;;;;;19.60;99.90;;;;;;5078035;28;19909;-90
2023/08/03 09:56:27;;;;;;;;;;;20.40;99.90;;;;;;5064513;28;19916;-92
2023/08/03 09:59:10;;;;;;;;;;;21.10;99.90;;;;;;5070190;28;19919;-91
2023/08/03 10:01:37;;;;;;;;;;;21.80;99.90;;;;;;5063293;28;19916;-91
2023/08/03 10:04:10;;;;;;;;;;;22.50;99.90;;;;;;5064596;28;19995;-94
2023/08/03 10:07:05;;;;;;;;;;;22.90;99.90;;;;;;5063985;28;20367;-95
2023/08/03 10:09:52;;;;;;;;;;;22.70;99.90;;;;;;5072820;28;20351;-92
2023/08/03 10:12:26;;;;;;;;;;;22.80;99.90;;;;;;5063986;28;19909;-95
2023/08/03 10:14:55;;;;;;;;;;;23.30;99.90;;;;;;5064207;28;19917;-90
2023/08/03 10:17:21;;;;;;;;;;;23.80;99.90;;;;;;5067843;28;19980;-93
2023/08/03 10:19:47;;;;;;;;;;;23.80;99.90;;;;;;5065467;28;19920;-92
2023/08/03 10:22:15;;;;;;;;;;;24.00;99.90;;;;;;5061548;28;19909;-90
2023/08/03 10:25:00;;;;;;;;;;;24.20;99.90;;;;;;5058402;28;19939;-94
2023/08/03 10:27:28;;;;;;;;;;;24.40;99.90;;;;;;5065314;28;19909;-91
2023/08/03 10:29:59;;;;;;;;;;;24.90;99.90;;;;;;5062530;28;20319;-92
2023/08/03 10:32:28;;;;;;;;;;;25.00;99.90;;;;;;5059432;28;19997;-93
2023/08/03 10:34:58;;;;;;;;;;;25.10;99.90;;;;;;5065184;28;19909;-93
2023/08/03 10:37:29;;;;;;;;;;;25.20;99.90;;;;;;5050221;28;19966;-92
2023/08/03 10:40:01;;;;;;;;;;;25.20;99.90;;;;;;5070479;28;19962;-93
2023/08/03 10:42:38;;;;;;;;;;;24.60;99.90;;;;;;5054644;28;19919;-93
2023/08/03 10:45:26;;;;;;;;;;;23.40;99.90;;;;;;5068840;28;19912;-93
2023/08/03 10:47:53;;;;;;;;;;;22.20;99.90;;;;;;5076001;28;19916;-90
2023/08/03 10:50:42;;;;;;;;;;;21.30;99.90;;;;;;5074329;28;19959;-89
2023/08/03 10:53:16;;;;;;;;;;;20.60;99.90;;;;;;5063389;28;19919;-92
2023/08/03 10:55:46;;;;;;;;;;;20.00;99.90;;;;;;5075333;28;19909;-92
2023/08/03 10:58:47;;;;;;;;;;;19.70;99.90;;;;;;5062836;28;19938;-94
2023/08/03 11:04:28;;;;;;;;;;;19.60;99.90;;;;;;5001996;28;19949;-93
2023/08/03 11:06:56;;;;;;;;;;;19.80;99.90;;;;;;4991214;28;20053;-93
2023/08/03 11:09:59;;;;;;;;;;;19.80;99.90;;;;;;5044826;28;20279;-93
2023/08/03 11:12:25;;;;;;;;;;;19.90;99.90;;;;;;5082640;28;20003;-92
2023/08/03 11:14:52;;;;;;;;;;;19.90;99.90;;;;;;5076953;28;19917;-91
2023/08/03 11:17:26;;;;;;;;;;;20.10;99.90;;;;;;5074289;28;19921;-93
2023/08/03 11:19:55;;;;;;;;;;;20.60;99.90;;;;;;5074542;28;19908;-93
2023/08/03 11:22:37;;;;;;;;;;;20.90;99.90;;;;;;5074868;28;19972;-92
2023/08/03 11:25:10;;;;;;;;;;;20.80;99.90;;;;;;5076502;28;20322;-92
2023/08/03 11:27:56;;;;;;;;;;;20.60;99.90;;;;;;5071964;28;19909;-93
2023/08/03 11:30:28;;;;;;;;;;;20.20;99.90;;;;;;5067010;28;20292;-89
2023/08/03 11:33:09;;;;;;;;;;;19.80;99.90;;;;;;5072173;28;19951;-91
2023/08/03 11:35:57;;;;;;;;;;;19.40;99.90;;;;;;5075127;28;19908;-91
2023/08/03 11:38:39;;;;;;;;;;;19.10;99.90;;;;;;5075699;28;20371;-92
2023/08/03 11:41:11;;;;;;;;;;;19.00;99.90;;;;;;5077243;28;20003;-93
2023/08/03 11:43:38;;;;;;;;;;;18.90;99.90;;;;;;5075187;28;19961;-93
2023/08/03 11:46:06;;;;;;;;;;;18.90;99.90;;;;;;5071239;28;19952;-92
2023/08/03 11:48:36;;;;;;;;;;;18.80;99.90;;;;;;5065645;28;19924;-92
2023/08/03 11:51:14;;;;;;;;;;;18.70;99.90;;;;;;5069643;28;19920;-91
2023/08/03 11:54:16;;;;;;;;;;;18.70;99.90;;;;;;5069598;28;19912;-94
2023/08/03 11:56:55;;;;;;;;;;;18.80;99.90;;;;;;5067197;28;19917;-92
2023/08/03 11:59:27;;;;;;;;;;;18.70;99.90;;;;;;5071173;28;19912;-93
2023/08/03 12:02:13;;;;;;;;;;;18.70;99.90;;;;;;5053942;28;19920;-94
2023/08/03 12:04:40;;;;;;;;;;;18.60;99.90;;;;;;5068999;28;20011;-93
2023/08/03 12:07:27;;;;;;;;;;;18.70;99.90;;;;;;5069898;28;19917;-91
2023/08/03 12:09:58;;;;;;;;;;;18.80;99.90;;;;;;5069941;28;19908;-91
2023/08/03 12:12:30;;;;;;;;;;;18.70;99.90;;;;;;5067387;28;19943;-91
2023/08/03 12:15:21;;;;;;;;;;;18.70;99.90;;;;;;5072490;28;19959;-93
2023/08/03 12:18:09;;;;;;;;;;;18.60;99.90;;;;;;5069252;28;19939;-94
2023/08/03 12:20:53;;;;;;;;;;;;;;;;;;;;;
2023/08/03 12:23:58;;;;;;;;;;;18.90;99.90;;;;;;5061433;28;19921;-93
2023/08/03 12:26:53;;;;;;;;;;;19.80;99.90;;;;;;5064465;28;19920;-93
2023/08/03 12:29:43;;;;;;;;;;;21.30;99.90;;;;;;5061709;28;20311;-94
2023/08/03 12:32:14;;;;;;;;;;;21.60;99.90;;;;;;5061954;28;19913;-94
2023/08/03 12:34:49;;;;;;;;;;;22.30;99.90;;;;;;5064462;28;19912;-93
2023/08/03 12:37:57;;;;;;;;;;;22.20;99.90;;;;;;5065374;28;20368;-95
2023/08/03 12:40:41;;;;;;;;;;;21.60;99.90;;;;;;5061214;28;19917;-95
2023/08/03 12:43:08;;;;;;;;;;;20.50;99.90;;;;;;5062107;28;19925;-95
2023/08/03 12:45:40;;;;;;;;;;;19.90;99.90;;;;;;5055787;28;19920;-93
2023/08/03 12:48:23;;;;;;;;;;;19.90;99.90;;;;;;5060923;28;19935;-95
2023/08/03 12:50:51;;;;;;;;;;;20.20;99.90;;;;;;5054249;28;20014;-93
2023/08/03 12:53:40;;;;;;;;;;;20.80;99.90;;;;;;5060553;28;19924;-92
2023/08/03 12:56:17;;;;;;;;;;;21.10;99.90;;;;;;5058536;28;19912;-92
2023/08/03 12:58:44;;;;;;;;;;;21.00;99.90;;;;;;5059457;28;19908;-92
2023/08/03 13:01:25;;;;;;;;;;;21.00;99.90;;;;;;5058862;28;20015;-91
2023/08/03 13:03:52;;;;;;;;;;;21.10;99.90;;;;;;5058833;28;19916;-91
2023/08/03 13:06:23;;;;;;;;;;;21.30;99.90;;;;;;5068001;28;19913;-91
2023/08/03 13:08:57;;;;;;;;;;;21.20;99.90;;;;;;5068751;28;19974;-93
2023/08/03 13:11:51;;;;;;;;;;;21.00;99.90;;;;;;5067252;28;19923;-92
2023/08/03 13:14:22;;;;;;;;;;;21.50;99.90;;;;;;5077481;28;20514;-92
2023/08/03 13:16:51;;;;;;;;;;;22.00;99.90;;;;;;5068252;28;19917;-91
2023/08/03 13:19:41;;;;;;;;;;;21.90;99.90;;;;;;5066235;28;20352;-92
2023/08/03 13:22:10;;;;;;;;;;;21.30;99.90;;;;;;5065805;28;20011;-91
2023/08/03 13:24:42;;;;;;;;;;;20.60;99.90;;;;;;5059578;28;19913;-91
2023/08/03 13:27:41;;;;;;;;;;;20.20;99.90;;;;;;5065892;28;19909;-92
2023/08/03 13:30:18;;;;;;;;;;;19.80;99.90;;;;;;5069601;28;19923;-93
2023/08/03 13:32:46;;;;;;;;;;;19.60;99.90;;;;;;5063664;28;19924;-94
2023/08/03 13:35:29;;;;;;;;;;;19.60;99.90;;;;;;5070767;28;19908;-95
2023/08/03 13:38:21;;;;;;;;;;;19.70;99.90;;;;;;5070087;28;20010;-93
2023/08/03 13:41:22;;;;;;;;;;;19.80;99.90;;;;;;5068017;28;19991;-92
2023/08/03 13:43:59;;;;;;;;;;;20.10;99.90;;;;;;5049126;28;20019;-94
2023/08/03 13:46:36;;;;;;;;;;;20.40;99.90;;;;;;5061593;28;21945;-95
2023/08/03 13:49:48;;;;;;;;;;;20.50;99.90;;;;;;5060042;28;19947;-95
2023/08/03 13:52:16;;;;;;;;;;;20.40;99.90;;;;;;5054856;28;19923;-96
2023/08/03 13:54:53;;;;;;;;;;;20.50;99.90;;;;;;5061801;28;20372;-93
2023/08/03 13:57:28;;;;;;;;;;;20.40;99.90;;;;;;5062647;28;19916;-94
2023/08/03 14:00:08;;;;;;;;;;;;;;;;;;;;;
2023/08/03 14:03:19;;;;;;;;;;;20.40;99.90;;;;;;5063565;28;19926;-95
2023/08/03 14:06:09;;;;;;;;;;;20.50;99.90;;;;;;5005165;28;19909;-91
2023/08/03 14:08:39;;;;;;;;;;;20.70;99.90;;;;;;5026268;28;19990;-89
2023/08/03 14:11:29;;;;;;;;;;;20.80;99.90;;;;;;5010995;28;19921;-90
2023/08/03 14:14:07;;;;;;;;;;;20.70;99.90;;;;;;5001391;28;20062;-88
2023/08/03 14:16:48;;;;;;;;;;;20.60;99.90;;;;;;5027087;28;20320;-90
2023/08/03 14:19:34;;;;;;;;;;;20.50;99.90;;;;;;5025492;28;19909;-89
2023/08/03 14:22:11;;;;;;;;;;;20.50;99.90;;;;;;5009373;28;19979;-89
2023/08/03 14:24:48;;;;;;;;;;;20.70;99.90;;;;;;5024259;28;19909;-89
2023/08/03 14:27:19;;;;;;;;;;;20.70;99.90;;;;;;4997533;28;19917;-88
2023/08/03 14:29:55;;;;;;;;;;;20.70;99.90;;;;;;5028572;28;20407;-89
2023/08/03 14:32:25;;;;;;;;;;;20.80;99.90;;;;;;5017630;28;19970;-89
2023/08/03 14:34:56;;;;;;;;;;;20.80;99.90;;;;;;5006678;28;20031;-88
2023/08/03 14:37:48;;;;;;;;;;;20.80;99.90;;;;;;5050647;28;19987;-88
2023/08/03 14:40:17;;;;;;;;;;;20.80;99.90;;;;;;5065268;28;19959;-88
2023/08/03 14:42:48;;;;;;;;;;;20.80;99.90;;;;;;5064169;28;19917;-89
2023/08/03 14:45:38;;;;;;;;;;;20.90;99.90;;;;;;5068195;28;19921;-88
2023/08/03 14:48:09;;;;;;;;;;;20.90;99.90;;;;;;5078974;28;19943;-89
2023/08/03 14:50:34;;;;;;;;;;;20.80;99.90;;;;;;5064596;28;19913;-89
2023/08/03 14:53:03;;;;;;;;;;;20.90;99.90;;;;;;5066593;28;19923;-88
2023/08/03 14:55:34;;;;;;;;;;;20.80;99.90;;;;;;5063800;28;19912;-88
2023/08/03 14:58:08;;;;;;;;;;;20.70;99.90;;;;;;5065038;28;20408;-89